sensor_id;sensor_type;location;lat;lon;timestamp;P1;P2;P0
47711;PMS7003;57457;51.634;5.886;2022-08-07T00:03:19;2.04;5.13;2.95
47711;PMS7003;57457;51.634;5.886;2022-08-07T00:16:38;2.76;5.57;3.28
47711;PMS7003;57457;51.634;5.886;2022-08-07T00:29:58;3.6;6.33;3.28
47711;PMS7003;57457;51.634;5.886;2022-08-07T00:43:18;3.73;6.55;3.61
47711;PMS7003;57457;51.634;5.886;2022-08-07T00:56:37;4.57;7.42;3.71
47711;PMS7003;57457;51.634;5.886;2022-08-07T01:09:57;6.25;8.4;4.26
47711;PMS7003;57457;51.634;5.886;2022-08-07T01:23:16;6.13;8.84;4.59
47711;PMS7003;57457;51.634;5.886;2022-08-07T01:49:56;8.41;10.04;5.13
47711;PMS7003;57457;51.634;5.886;2022-08-07T02:29:55;9.85;11.13;5.79
47711;PMS7003;57457;51.634;5.886;2022-08-07T02:43:14;6.73;9.38;5.46
47711;PMS7003;57457;51.634;5.886;2022-08-07T02:56:34;8.77;10.58;5.46
47711;PMS7003;57457;51.634;5.886;2022-08-07T03:09:53;9.13;9.71;5.24
47711;PMS7003;57457;51.634;5.886;2022-08-07T03:36:33;7.57;9.93;5.13
47711;PMS7003;57457;51.634;5.886;2022-08-07T03:49:52;9.49;10.69;5.24
47711;PMS7003;57457;51.634;5.886;2022-08-07T04:03:12;7.21;9.6;5.35
47711;PMS7003;57457;51.634;5.886;2022-08-07T04:16:31;8.65;11.13;5.35
47711;PMS7003;57457;51.634;5.886;2022-08-07T04:29:51;8.41;10.15;5.57
47711;PMS7003;57457;51.634;5.886;2022-08-07T04:43:11;8.77;10.58;5.35
47711;PMS7003;57457;51.634;5.886;2022-08-07T04:56:30;12.13;12.65;6.0
47711;PMS7003;57457;51.634;5.886;2022-08-07T05:23:09;13.21;12.98;6.77
47711;PMS7003;57457;51.634;5.886;2022-08-07T05:36:29;10.69;12.33;6.11
47711;PMS7003;57457;51.634;5.886;2022-08-07T06:03:08;10.57;12.76;5.79
47711;PMS7003;57457;51.634;5.886;2022-08-07T06:29:47;10.81;12.76;5.9
47711;PMS7003;57457;51.634;5.886;2022-08-07T06:43:07;9.49;11.89;5.24
47711;PMS7003;57457;51.634;5.886;2022-08-07T06:56:27;12.85;12.76;5.57
47711;PMS7003;57457;51.634;5.886;2022-08-07T07:09:46;9.73;11.78;5.46
47711;PMS7003;57457;51.634;5.886;2022-08-07T07:23:06;9.73;11.78;5.02
47711;PMS7003;57457;51.634;5.886;2022-08-07T07:49:45;10.21;11.89;5.24
47711;PMS7003;57457;51.634;5.886;2022-08-07T08:03:05;9.37;11.78;5.02
47711;PMS7003;57457;51.634;5.886;2022-08-07T08:16:24;6.85;8.62;4.59
47711;PMS7003;57457;51.634;5.886;2022-08-07T08:29:44;3.12;6.11;3.17
47711;PMS7003;57457;51.634;5.886;2022-08-07T08:56:23;3.73;5.57;3.28
47711;PMS7003;57457;51.634;5.886;2022-08-07T09:36:22;1.08;4.15;2.3
47711;PMS7003;57457;51.634;5.886;2022-08-07T09:49:42;2.28;3.5;1.64
47711;PMS7003;57457;51.634;5.886;2022-08-07T10:03:01;1.56;3.17;1.75
47711;PMS7003;57457;51.634;5.886;2022-08-07T10:16:21;0.96;4.04;2.19
47711;PMS7003;57457;51.634;5.886;2022-08-07T10:29:41;1.08;4.26;2.3
47711;PMS7003;57457;51.634;5.886;2022-08-07T10:43:00;2.52;3.39;1.86
47711;PMS7003;57457;51.634;5.886;2022-08-07T11:09:39;0.24;3.5;1.86
47711;PMS7003;57457;51.634;5.886;2022-08-07T11:22:59;1.8;3.06;1.97
47711;PMS7003;57457;51.634;5.886;2022-08-07T11:36:19;1.2;4.37;2.95
47711;PMS7003;57457;51.634;5.886;2022-08-07T11:49:38;1.92;4.8;3.28
47711;PMS7003;57457;51.634;5.886;2022-08-07T12:02:58;1.56;4.59;2.84
47711;PMS7003;57457;51.634;5.886;2022-08-07T12:29:37;2.76;4.7;2.62
47711;PMS7003;57457;51.634;5.886;2022-08-07T12:42:57;0.96;4.15;2.62
47711;PMS7003;57457;51.634;5.886;2022-08-07T12:56:16;1.08;4.26;2.52
47711;PMS7003;57457;51.634;5.886;2022-08-07T13:09:36;0.72;3.93;1.97
47711;PMS7003;57457;51.634;5.886;2022-08-07T13:22:56;0.01;2.73;1.64
47711;PMS7003;57457;51.634;5.886;2022-08-07T13:36:15;0.01;2.84;1.64
47711;PMS7003;57457;51.634;5.886;2022-08-07T13:49:35;0.01;2.73;1.54
47711;PMS7003;57457;51.634;5.886;2022-08-07T14:02:55;0.01;3.06;1.97
47711;PMS7003;57457;51.634;5.886;2022-08-07T14:16:14;0.12;3.28;1.75
47711;PMS7003;57457;51.634;5.886;2022-08-07T14:29:34;0.01;2.84;1.75
47711;PMS7003;57457;51.634;5.886;2022-08-07T14:42:53;1.56;2.84;1.54
47711;PMS7003;57457;51.634;5.886;2022-08-07T15:09:33;0.96;2.52;1.21
47711;PMS7003;57457;51.634;5.886;2022-08-07T15:22:52;0.01;2.3;1.43
47711;PMS7003;57457;51.634;5.886;2022-08-07T15:36:12;0.01;2.41;1.21
47711;PMS7003;57457;51.634;5.886;2022-08-07T15:49:32;0.01;1.64;
47711;PMS7003;57457;51.634;5.886;2022-08-07T16:02:51;0.01;2.41;1.43
47711;PMS7003;57457;51.634;5.886;2022-08-07T16:16:11;0.01;3.06;1.32
47711;PMS7003;57457;51.634;5.886;2022-08-07T16:29:31;0.01;1.97;
47711;PMS7003;57457;51.634;5.886;2022-08-07T16:42:50;0.72;2.08;1.21
47711;PMS7003;57457;51.634;5.886;2022-08-07T17:09:30;0.01;1.97;1.21
47711;PMS7003;57457;51.634;5.886;2022-08-07T17:22:49;0.01;2.52;1.32
47711;PMS7003;57457;51.634;5.886;2022-08-07T17:36:09;0.01;2.41;1.32
47711;PMS7003;57457;51.634;5.886;2022-08-07T17:49:28;0.01;3.06;1.64
47711;PMS7003;57457;51.634;5.886;2022-08-07T18:02:48;0.01;3.06;1.54
47711;PMS7003;57457;51.634;5.886;2022-08-07T18:16:08;0.01;2.19;
47711;PMS7003;57457;51.634;5.886;2022-08-07T18:56:06;0.01;2.52;1.32
47711;PMS7003;57457;51.634;5.886;2022-08-07T19:09:26;0.48;2.62;1.32
47711;PMS7003;57457;51.634;5.886;2022-08-07T19:22:45;0.01;2.62;1.32
47711;PMS7003;57457;51.634;5.886;2022-08-07T19:36:05;0.84;2.41;1.32
47711;PMS7003;57457;51.634;5.886;2022-08-07T19:49:25;0.01;2.19;1.21
47711;PMS7003;57457;51.634;5.886;2022-08-07T20:16:04;0.24;3.17;1.43
47711;PMS7003;57457;51.634;5.886;2022-08-07T20:29:23;0.01;2.84;1.54
47711;PMS7003;57457;51.634;5.886;2022-08-07T20:42:43;0.12;3.39;1.64
47711;PMS7003;57457;51.634;5.886;2022-08-07T20:56:03;0.36;3.5;1.97
47711;PMS7003;57457;51.634;5.886;2022-08-07T21:09:22;1.44;4.26;2.08
47711;PMS7003;57457;51.634;5.886;2022-08-07T21:22:42;2.64;4.59;2.41
47711;PMS7003;57457;51.634;5.886;2022-08-07T21:36:01;1.44;4.59;2.3
47711;PMS7003;57457;51.634;5.886;2022-08-07T21:49:21;3.12;6.11;2.73
47711;PMS7003;57457;51.634;5.886;2022-08-07T22:02:41;1.68;4.7;2.52
47711;PMS7003;57457;51.634;5.886;2022-08-07T22:16:00;2.16;5.02;2.41
47711;PMS7003;57457;51.634;5.886;2022-08-07T22:29:20;4.33;6.0;2.73
47711;PMS7003;57457;51.634;5.886;2022-08-07T22:42:40;4.81;6.55;3.39
47711;PMS7003;57457;51.634;5.886;2022-08-07T23:09:19;4.81;7.53;3.61
47711;PMS7003;57457;51.634;5.886;2022-08-07T23:22:38;4.69;7.31;3.61
47711;PMS7003;57457;51.634;5.886;2022-08-07T23:35:58;4.81;7.64;3.93
47711;PMS7003;57457;51.634;5.886;2022-08-07T23:49:18;5.29;7.86;3.93
